Time;durP1;ratioP1;P1;durP2;ratioP2;P2;SDS_P1;SDS_P2;PMS_P1;PMS_P2;Temp;Humidity;BMP_temperature;BMP_pressure;BME280_temperature;BME280_humidity;BME280_pressure;Samples;Min_cycle;Max_cycle;Signal;HPM_P1;HPM_P2
2021/12/14 00:00:17;;;;;;;0.77;0.77;;;21.30;40.00;;;;;;5014472;28;20030;-42
2021/12/14 00:02:50;;;;;;;1.17;1.08;;;21.30;40.00;;;;;;4998632;28;20318;-40
2021/12/14 00:05:17;;;;;;;1.13;0.77;;;21.20;40.00;;;;;;5011660;28;20033;-40
2021/12/14 00:07:43;;;;;;;1.60;1.10;;;21.30;40.00;;;;;;5016816;28;20445;-43
2021/12/14 00:10:28;;;;;;;1.27;1.00;;;21.20;40.00;;;;;;5014597;28;20026;-44
2021/12/14 00:13:03;;;;;;;3.22;1.00;;;21.20;40.00;;;;;;5002931;28;20037;-41
2021/12/14 00:15:30;;;;;;;1.30;0.90;;;21.20;40.10;;;;;;5013396;28;20088;-41
2021/12/14 00:18:03;;;;;;;1.10;0.90;;;21.20;40.00;;;;;;5008314;28;20027;-40
2021/12/14 00:20:31;;;;;;;1.55;1.23;;;21.20;40.00;;;;;;5021108;28;20452;-41
2021/12/14 00:25:35;;;;;;;1.45;0.90;;;21.20;40.00;;;;;;4998526;28;20391;-42
2021/12/14 00:28:06;;;;;;;1.73;1.30;;;21.20;40.00;;;;;;5004802;28;20042;-42
2021/12/14 00:30:33;;;;;;;1.05;0.90;;;21.20;40.10;;;;;;5009092;28;20117;-41
2021/12/14 00:33:00;;;;;;;1.25;1.00;;;21.20;40.10;;;;;;5013989;28;20033;-42
2021/12/14 00:35:26;;;;;;;1.33;1.00;;;21.20;40.10;;;;;;5009381;28;20418;-41
2021/12/14 00:37:54;;;;;;;1.20;1.00;;;21.20;40.10;;;;;;5014999;28;20034;-40
2021/12/14 00:40:33;;;;;;;1.10;1.00;;;21.20;40.10;;;;;;5012632;28;20026;-44
2021/12/14 00:43:00;;;;;;;1.08;0.85;;;21.20;40.10;;;;;;5008432;28;20030;-41
2021/12/14 00:45:29;;;;;;;1.73;1.02;;;21.10;40.10;;;;;;5016142;28;20095;-41
2021/12/14 00:47:57;;;;;;;0.80;0.80;;;21.10;40.10;;;;;;5016325;28;20030;-41
2021/12/14 00:50:27;;;;;;;1.20;1.05;;;21.10;40.10;;;;;;5017039;28;20033;-42
2021/12/14 00:52:53;;;;;;;1.00;0.90;;;21.10;40.10;;;;;;5024839;28;20112;-42
2021/12/14 00:55:25;;;;;;;1.15;1.05;;;21.10;40.20;;;;;;5016726;28;20045;-40
2021/12/14 00:57:52;;;;;;;1.50;1.17;;;21.10;40.20;;;;;;5007768;28;20031;-41
2021/12/14 01:00:26;;;;;;;0.70;0.70;;;21.10;40.20;;;;;;5031651;28;20026;-41
2021/12/14 01:02:52;;;;;;;1.00;0.90;;;21.10;40.20;;;;;;5018873;28;20026;-41
2021/12/14 01:05:31;;;;;;;0.98;0.88;;;21.10;40.20;;;;;;5043442;28;20056;-39
2021/12/14 01:07:58;;;;;;;1.23;1.00;;;21.10;40.20;;;;;;5019891;28;20036;-40
2021/12/14 01:10:32;;;;;;;1.20;1.00;;;21.10;40.20;;;;;;5053519;28;20025;-42
2021/12/14 01:13:03;;;;;;;1.25;1.15;;;21.10;40.20;;;;;;5055209;28;20021;-43
2021/12/14 01:16:00;;;;;;;1.25;1.00;;;21.10;40.30;;;;;;5036782;28;20090;-42
2021/12/14 01:21:44;;;;;;;1.88;1.20;;;21.10;40.20;;;;;;5031212;28;20098;-42
2021/12/14 01:24:24;;;;;;;1.42;1.00;;;21.00;40.20;;;;;;5031775;28;20120;-41
2021/12/14 01:26:50;;;;;;;1.45;1.10;;;21.00;40.30;;;;;;5032973;28;20081;-42
2021/12/14 01:29:18;;;;;;;1.05;0.88;;;21.00;40.30;;;;;;5033877;28;20086;-42
2021/12/14 01:31:47;;;;;;;1.25;1.10;;;21.10;40.30;;;;;;5026316;28;20021;-42
2021/12/14 01:34:20;;;;;;;2.05;1.27;;;21.00;40.30;;;;;;5018995;28;20354;-41
2021/12/14 01:36:52;;;;;;;1.27;1.13;;;21.00;40.30;;;;;;5035336;28;20021;-42
2021/12/14 01:42:11;;;;;;;1.48;0.95;;;21.00;40.30;;;;;;5037609;28;20432;-41
2021/12/14 01:44:45;;;;;;;1.17;1.08;;;21.00;40.30;;;;;;5022706;28;20079;-44
2021/12/14 01:47:23;;;;;;;1.33;0.90;;;21.00;40.40;;;;;;5023597;28;20021;-40
2021/12/14 01:50:16;;;;;;;1.40;1.10;;;21.00;40.40;;;;;;5017526;28;20120;-42
2021/12/14 01:52:58;;;;;;;1.30;0.95;;;21.00;40.40;;;;;;5024747;28;20145;-46
2021/12/14 01:55:28;;;;;;;1.00;0.90;;;21.00;40.40;;;;;;5032378;28;20035;-40
2021/12/14 01:57:57;;;;;;;1.30;1.00;;;21.00;40.40;;;;;;5048489;28;20017;-41
2021/12/14 02:00:33;;;;;;;0.90;0.90;;;20.90;40.40;;;;;;5031463;28;20086;-41
2021/12/14 02:03:02;;;;;;;1.25;1.15;;;21.00;40.40;;;;;;5035914;28;20033;-41
2021/12/14 02:05:34;;;;;;;1.58;1.20;;;20.90;40.40;;;;;;5024830;28;20033;-41
2021/12/14 02:08:03;;;;;;;1.00;0.90;;;20.90;40.40;;;;;;5040433;28;20040;-42
2021/12/14 02:10:34;;;;;;;1.13;1.00;;;20.90;40.40;;;;;;5020650;28;20036;-43
2021/12/14 02:13:01;;;;;;;1.33;1.23;;;20.90;40.40;;;;;;5050803;28;20475;-40
2021/12/14 02:15:38;;;;;;;1.30;0.90;;;20.90;40.50;;;;;;5017876;28;20460;-41
2021/12/14 02:18:14;;;;;;;1.27;1.10;;;20.90;40.40;;;;;;5023119;28;20053;-41
2021/12/14 02:21:00;;;;;;;1.38;1.10;;;20.90;40.40;;;;;;5027021;28;20036;-42
2021/12/14 02:23:28;;;;;;;2.45;1.10;;;20.90;40.40;;;;;;5037089;28;20028;-41
2021/12/14 02:25:57;;;;;;;1.60;1.02;;;20.90;40.50;;;;;;5021671;28;20036;-43
2021/12/14 02:28:23;;;;;;;1.13;1.00;;;20.90;40.50;;;;;;5034380;28;20044;-41
2021/12/14 02:30:54;;;;;;;1.30;1.05;;;20.90;40.50;;;;;;5031424;28;20028;-40
2021/12/14 02:33:29;;;;;;;1.10;1.00;;;20.90;40.50;;;;;;5033319;28;20036;-43
2021/12/14 02:35:56;;;;;;;1.45;0.90;;;20.90;40.50;;;;;;5020329;28;20079;-44
2021/12/14 02:38:22;;;;;;;1.10;0.95;;;20.90;40.60;;;;;;5017691;28;20483;-42
2021/12/14 02:40:54;;;;;;;1.67;0.93;;;20.80;40.50;;;;;;5028100;28;20082;-42
2021/12/14 02:43:32;;;;;;;1.33;1.05;;;20.90;40.60;;;;;;5033805;28;20033;-44
2021/12/14 02:46:20;;;;;;;1.30;1.10;;;20.90;40.60;;;;;;5034995;28;20032;-41
2021/12/14 02:48:54;;;;;;;1.13;0.90;;;20.90;40.60;;;;;;5023681;28;20036;-42
2021/12/14 02:51:31;;;;;;;1.42;1.10;;;20.80;40.60;;;;;;5027524;28;20086;-41
2021/12/14 02:54:09;;;;;;;1.48;0.93;;;20.80;41.20;;;;;;5038907;28;20021;-40
2021/12/14 02:56:36;;;;;;;1.50;1.20;;;20.80;40.60;;;;;;5028011;28;20056;-43
2021/12/14 02:59:10;;;;;;;1.65;1.10;;;20.80;40.60;;;;;;5014169;28;20046;-43
2021/12/14 03:01:38;;;;;;;1.10;1.00;;;20.80;40.60;;;;;;5003947;28;20032;-45
2021/12/14 03:04:06;;;;;;;1.05;0.95;;;20.80;40.60;;;;;;4999143;28;20034;-42
2021/12/14 03:06:36;;;;;;;1.23;0.95;;;20.80;40.60;;;;;;5016085;28;20030;-42
2021/12/14 03:09:33;;;;;;;1.45;1.30;;;20.80;40.70;;;;;;5015937;28;20022;-41
2021/12/14 03:11:52;;;;;;;1.73;1.10;;;20.80;40.70;;;;;;5009095;28;20046;-44
2021/12/14 03:14:18;;;;;;;1.40;0.90;;;20.80;40.70;;;;;;5000654;28;20476;-42
2021/12/14 03:16:44;;;;;;;1.73;1.33;;;20.80;40.70;;;;;;4998669;28;20025;-42
2021/12/14 03:19:11;;;;;;;1.38;1.05;;;20.70;40.60;;;;;;5016644;28;20021;-41
2021/12/14 03:21:41;;;;;;;1.35;1.00;;;20.80;40.70;;;;;;5016284;28;20117;-41
2021/12/14 03:24:11;;;;;;;1.63;1.30;;;20.80;40.70;;;;;;5016889;28;20030;-42
2021/12/14 03:26:40;;;;;;;1.30;1.10;;;20.80;40.70;;;;;;5009359;28;20029;-42
2021/12/14 03:29:18;;;;;;;2.15;1.30;;;20.80;40.70;;;;;;5001983;28;20034;-42
2021/12/14 03:31:48;;;;;;;1.13;1.02;;;20.70;40.70;;;;;;5015982;28;20022;-42
2021/12/14 03:34:28;;;;;;;1.15;0.95;;;20.70;40.70;;;;;;4999936;28;20116;-41
2021/12/14 03:37:24;;;;;;;1.25;0.98;;;20.80;40.70;;;;;;4998053;28;20026;-40
2021/12/14 03:39:58;;;;;;;1.15;1.05;;;20.70;40.70;;;;;;5002837;28;20048;-41
2021/12/14 03:42:37;;;;;;;1.50;1.20;;;20.70;40.80;;;;;;5017078;28;20096;-40
2021/12/14 03:45:18;;;;;;;1.50;1.00;;;20.70;40.70;;;;;;5007702;28;20030;-44
2021/12/14 03:47:49;;;;;;;2.85;1.27;;;20.70;40.70;;;;;;4998029;28;20092;-42
2021/12/14 03:50:25;;;;;;;1.35;1.25;;;20.70;40.80;;;;;;5009054;28;20030;-45
2021/12/14 03:52:51;;;;;;;1.67;1.10;;;20.70;40.80;;;;;;5009636;28;20049;-42
2021/12/14 03:55:29;;;;;;;1.48;1.20;;;20.70;40.80;;;;;;5007694;28;20049;-41
2021/12/14 03:57:56;;;;;;;3.53;1.10;;;20.70;40.80;;;;;;5018314;28;20033;-42
2021/12/14 04:00:34;;;;;;;1.35;1.20;;;20.70;40.80;;;;;;5037110;28;20017;-40
2021/12/14 04:03:04;;;;;;;1.10;1.00;;;20.70;40.80;;;;;;5054634;28;20049;-40
2021/12/14 04:05:44;;;;;;;1.25;1.13;;;20.70;40.90;;;;;;5023079;28;20049;-41
2021/12/14 04:08:12;;;;;;;1.63;0.90;;;20.70;40.90;;;;;;5020634;28;20424;-41
2021/12/14 04:10:40;;;;;;;2.85;1.08;;;20.70;41.50;;;;;;5035185;28;20123;-42
2021/12/14 04:13:08;;;;;;;1.00;0.90;;;20.70;40.90;;;;;;5022914;28;20341;-40
2021/12/14 04:15:34;;;;;;;1.08;0.98;;;20.70;40.90;;;;;;5026266;28;20026;-40
2021/12/14 04:18:00;;;;;;;1.65;1.20;;;20.70;40.90;;;;;;5037219;28;20025;-42
2021/12/14 04:20:29;;;;;;;1.20;1.10;;;20.70;40.90;;;;;;5020844;28;20033;-42
2021/12/14 04:22:56;;;;;;;1.75;1.27;;;20.60;40.90;;;;;;5020293;28;20393;-40
2021/12/14 04:25:29;;;;;;;1.30;1.20;;;20.60;40.90;;;;;;5021638;28;20029;-42
2021/12/14 04:27:58;;;;;;;1.30;1.20;;;20.60;40.90;;;;;;5029131;28;20029;-42
2021/12/14 04:30:27;;;;;;;1.30;1.02;;;20.60;40.90;;;;;;5030160;28;20029;-44
2021/12/14 04:33:05;;;;;;;1.70;1.33;;;20.60;40.90;;;;;;5037043;28;20107;-42
2021/12/14 04:35:37;;;;;;;1.20;1.10;;;20.60;40.90;;;;;;5020581;28;20033;-43
2021/12/14 04:38:11;;;;;;;1.30;1.20;;;20.60;40.90;;;;;;5037050;28;20032;-42
2021/12/14 04:51:59;;;;;;;1.20;1.10;;;20.60;41.00;;;;;;5026512;28;20033;-39
2021/12/14 04:54:39;;;;;;;1.25;1.00;;;20.50;40.90;;;;;;5023506;28;20105;-42
2021/12/14 04:57:19;;;;;;;1.27;1.17;;;20.50;40.90;;;;;;5035992;28;20025;-41
2021/12/14 04:59:47;;;;;;;1.50;1.05;;;20.50;40.90;;;;;;5036091;28;20037;-41
2021/12/14 05:02:23;;;;;;;1.42;1.17;;;20.50;41.00;;;;;;5027378;28;20115;-41
2021/12/14 05:05:04;;;;;;;1.35;1.20;;;20.50;41.00;;;;;;5028177;28;20028;-41
2021/12/14 05:09:59;;;;;;;1.05;0.95;;;20.50;40.90;;;;;;5033364;28;20033;-43
2021/12/14 05:12:32;;;;;;;1.15;0.95;;;20.50;40.90;;;;;;5032996;28;20025;-42
2021/12/14 05:15:11;;;;;;;1.50;0.90;;;20.50;40.90;;;;;;5027864;28;20412;-41
2021/12/14 05:17:45;;;;;;;1.30;0.82;;;20.50;40.90;;;;;;5038405;28;20025;-43
2021/12/14 05:20:13;;;;;;;1.00;0.90;;;20.60;40.90;;;;;;5036466;28;20494;-42
2021/12/14 05:22:44;;;;;;;1.38;1.23;;;20.60;40.80;;;;;;5036508;28;20396;-41
2021/12/14 05:25:18;;;;;;;1.00;0.90;;;20.70;40.80;;;;;;5036480;28;20036;-41
2021/12/14 05:27:51;;;;;;;2.72;1.10;;;20.70;40.80;;;;;;5025476;28;20025;-40
2021/12/14 05:30:22;;;;;;;0.98;0.90;;;20.70;40.80;;;;;;5031675;28;20024;-41
2021/12/14 05:33:23;;;;;;;1.35;1.00;;;20.70;40.70;;;;;;5025441;28;20108;-43
2021/12/14 05:35:52;;;;;;;1.15;1.05;;;20.70;40.60;;;;;;5037436;28;20321;-41
2021/12/14 05:38:29;;;;;;;1.10;1.00;;;20.80;40.60;;;;;;5023032;28;20025;-42
2021/12/14 05:41:09;;;;;;;1.02;0.80;;;20.80;40.60;;;;;;5027443;28;20020;-42
2021/12/14 05:43:40;;;;;;;1.50;0.95;;;20.80;40.60;;;;;;5035987;28;20029;-42
2021/12/14 05:46:29;;;;;;;1.50;0.80;;;20.80;40.50;;;;;;5052974;28;20041;-40
2021/12/14 05:49:13;;;;;;;1.00;0.90;;;20.80;40.40;;;;;;5044128;28;20056;-47
2021/12/14 05:51:39;;;;;;;2.08;0.80;;;20.90;40.50;;;;;;5023189;28;20029;-47
2021/12/14 05:54:05;;;;;;;1.25;0.80;;;20.80;40.30;;;;;;5021863;28;20059;-50
2021/12/14 05:56:33;;;;;;;1.10;1.00;;;20.80;40.30;;;;;;5030196;28;20021;-45
2021/12/14 05:59:01;;;;;;;1.27;1.00;;;20.90;41.00;;;;;;5049218;28;20037;-44
2021/12/14 06:01:30;;;;;;;1.10;0.90;;;20.90;40.30;;;;;;5046358;28;20352;-42
2021/12/14 06:04:03;;;;;;;1.30;0.98;;;20.90;40.30;;;;;;5020874;28;20452;-43
2021/12/14 06:06:43;;;;;;;0.63;0.63;;;20.90;40.20;;;;;;5026134;28;20028;-45
2021/12/14 06:09:18;;;;;;;1.20;0.90;;;20.90;40.20;;;;;;5033901;28;20097;-45
2021/12/14 06:11:58;;;;;;;1.17;0.73;;;20.90;40.20;;;;;;5027705;28;20029;-43
2021/12/14 06:14:27;;;;;;;1.15;0.98;;;20.90;40.20;;;;;;5018793;28;20013;-44
2021/12/14 06:16:59;;;;;;;1.00;0.90;;;20.90;40.20;;;;;;5033549;28;20037;-48
2021/12/14 06:19:32;;;;;;;1.38;1.05;;;20.90;40.10;;;;;;5018333;28;20032;-43
2021/12/14 06:22:21;;;;;;;1.00;0.80;;;21.00;40.20;;;;;;5021083;28;20086;-41
2021/12/14 06:24:54;;;;;;;1.10;0.90;;;21.00;40.10;;;;;;5034198;28;20036;-40
2021/12/14 06:27:25;;;;;;;0.73;0.73;;;20.90;40.10;;;;;;5029632;28;20075;-41
2021/12/14 06:29:53;;;;;;;1.15;1.05;;;21.00;40.10;;;;;;5024801;28;20462;-40
2021/12/14 06:32:25;;;;;;;1.08;0.98;;;21.00;40.10;;;;;;5027699;28;20033;-40
2021/12/14 06:34:59;;;;;;;0.70;0.68;;;21.00;40.00;;;;;;5052230;28;20120;-42
2021/12/14 06:40:20;;;;;;;0.80;0.80;;;21.00;40.00;;;;;;5025242;28;20029;-41
2021/12/14 06:42:56;;;;;;;1.08;0.85;;;21.00;39.90;;;;;;5035992;28;20060;-41
2021/12/14 06:45:28;;;;;;;0.90;0.75;;;21.00;39.90;;;;;;5033097;28;20505;-42
2021/12/14 06:48:05;;;;;;;1.10;1.00;;;21.00;39.90;;;;;;5052762;28;20438;-43
2021/12/14 06:50:50;;;;;;;1.55;1.10;;;21.00;39.90;;;;;;5035725;28;20079;-41
2021/12/14 06:53:30;;;;;;;1.15;1.00;;;21.00;39.90;;;;;;5018849;28;20022;-43
2021/12/14 06:56:28;;;;;;;1.17;1.08;;;21.00;39.90;;;;;;4982339;28;20118;-42
2021/12/14 06:59:25;;;;;;;1.52;1.20;;;21.00;39.90;;;;;;5034452;28;20052;-43
2021/12/14 07:02:12;;;;;;;1.30;1.20;;;21.00;39.90;;;;;;5033635;28;20405;-40
2021/12/14 07:04:52;;;;;;;1.33;1.10;;;21.00;39.90;;;;;;5048864;28;20029;-43
2021/12/14 07:07:25;;;;;;;1.10;1.00;;;21.00;39.90;;;;;;5030588;28;20036;-45
2021/12/14 07:09:59;;;;;;;0.90;0.90;;;21.00;39.80;;;;;;5036692;28;20320;-41
2021/12/14 07:12:28;;;;;;;1.75;1.15;;;21.00;39.80;;;;;;5038784;28;20034;-44
2021/12/14 07:15:06;;;;;;;1.20;1.10;;;21.00;39.80;;;;;;5037118;28;20433;-40
2021/12/14 07:17:43;;;;;;;1.20;1.10;;;21.00;39.80;;;;;;5047710;28;20025;-43
2021/12/14 07:20:21;;;;;;;1.40;1.00;;;21.00;39.80;;;;;;5053362;28;20032;-45
2021/12/14 07:22:54;;;;;;;0.98;0.90;;;21.00;39.80;;;;;;5050024;28;20020;-40
2021/12/14 07:25:30;;;;;;;1.73;1.30;;;21.00;39.70;;;;;;5048015;28;20037;-41
2021/12/14 07:27:57;;;;;;;1.65;1.00;;;21.00;39.80;;;;;;5042392;28;20387;-40
2021/12/14 07:30:36;;;;;;;2.17;1.30;;;21.00;39.70;;;;;;5044731;28;20103;-46
2021/12/14 07:33:10;;;;;;;1.35;1.17;;;21.00;39.70;;;;;;5037794;28;20072;-40
2021/12/14 07:35:47;;;;;;;1.50;1.30;;;21.00;39.80;;;;;;5048956;28;20053;-41
2021/12/14 07:38:18;;;;;;;1.08;0.90;;;21.00;39.90;;;;;;5041413;28;20047;-45
2021/12/14 07:40:48;;;;;;;2.35;1.20;;;21.00;39.90;;;;;;5042972;28;20099;-42
2021/12/14 07:43:29;;;;;;;1.70;1.25;;;21.00;39.90;;;;;;5050196;28;20055;-42
2021/12/14 07:45:56;;;;;;;2.35;1.10;;;21.10;39.90;;;;;;5053012;28;20032;-43
2021/12/14 07:48:41;;;;;;;1.58;1.00;;;21.10;39.80;;;;;;5055805;28;20029;-42
2021/12/14 07:51:08;;;;;;;1.30;1.00;;;21.20;39.70;;;;;;5054979;28;20079;-41
2021/12/14 07:53:41;;;;;;;1.98;1.20;;;21.30;40.30;;;;;;5054348;28;20057;-42
2021/12/14 07:56:27;;;;;;;1.15;0.90;;;21.40;39.50;;;;;;5055635;28;20060;-41
2021/12/14 07:58:54;;;;;;;1.67;1.02;;;21.50;39.40;;;;;;5051515;28;20064;-41
2021/12/14 08:01:21;;;;;;;1.33;1.17;;;21.60;39.30;;;;;;5053045;28;20096;-44
2021/12/14 08:03:47;;;;;;;1.02;0.90;;;21.70;39.20;;;;;;5046244;28;20206;-47
2021/12/14 08:06:14;;;;;;;1.02;0.93;;;21.70;39.00;;;;;;5038636;28;20109;-45
2021/12/14 08:08:53;;;;;;;1.38;1.00;;;21.80;38.90;;;;;;5038820;28;20033;-43
2021/12/14 08:11:40;;;;;;;1.13;0.82;;;21.90;38.90;;;;;;5038560;28;20099;-42
2021/12/14 08:14:13;;;;;;;1.80;0.90;;;22.00;38.80;;;;;;5045242;28;20025;-43
2021/12/14 08:16:46;;;;;;;1.00;0.90;;;22.10;38.70;;;;;;5047724;28;20116;-42
2021/12/14 08:19:42;;;;;;;1.38;0.90;;;22.20;38.60;;;;;;5042135;28;20029;-42
2021/12/14 08:22:31;;;;;;;1.60;1.13;;;22.20;38.50;;;;;;5047979;28;20096;-45
2021/12/14 08:24:57;;;;;;;3.83;0.95;;;22.30;38.40;;;;;;5047395;28;20115;-44
2021/12/14 08:27:26;;;;;;;1.83;1.25;;;22.30;38.40;;;;;;5056814;28;20467;-44
2021/12/14 08:29:55;;;;;;;5.22;1.45;;;22.40;38.50;;;;;;5051530;28;20029;-48
2021/12/14 08:32:24;;;;;;;1.45;1.00;;;22.40;38.40;;;;;;5052633;28;20019;-47
2021/12/14 08:34:53;;;;;;;1.52;1.10;;;22.50;38.40;;;;;;5045626;28;20048;-46
2021/12/14 08:37:32;;;;;;;1.95;1.00;;;22.50;38.40;;;;;;5056849;28;20309;-45
2021/12/14 08:40:16;;;;;;;1.00;0.90;;;22.60;38.30;;;;;;5055088;28;20506;-48
2021/12/14 08:43:08;;;;;;;1.30;0.98;;;22.60;38.20;;;;;;5034913;28;20036;-45
2021/12/14 08:45:50;;;;;;;1.30;1.13;;;22.70;38.20;;;;;;5042468;28;20052;-46
2021/12/14 08:48:29;;;;;;;0.98;0.75;;;22.70;38.10;;;;;;5035758;28;20033;-44
2021/12/14 08:51:15;;;;;;;1.30;1.10;;;22.80;38.10;;;;;;5050427;28;20502;-49
2021/12/14 08:53:56;;;;;;;1.70;1.17;;;22.80;38.00;;;;;;5055814;28;20021;-44
2021/12/14 08:56:25;;;;;;;1.10;1.00;;;22.80;37.90;;;;;;5053486;28;20032;-43
2021/12/14 08:58:51;;;;;;;0.93;0.85;;;22.80;38.00;;;;;;5053685;28;20321;-43
2021/12/14 09:01:21;;;;;;;1.00;0.90;;;22.90;38.00;;;;;;5053817;28;20036;-43
2021/12/14 09:03:56;;;;;;;1.23;0.98;;;22.90;37.90;;;;;;5055073;28;20108;-44
2021/12/14 09:06:28;;;;;;;1.30;1.17;;;23.00;37.80;;;;;;5052952;28;20040;-44
2021/12/14 09:08:58;;;;;;;1.30;1.10;;;23.00;37.80;;;;;;5055826;28;20025;-45
2021/12/14 09:11:29;;;;;;;1.55;1.30;;;23.00;37.80;;;;;;5037644;28;20043;-43
2021/12/14 09:13:56;;;;;;;1.55;1.20;;;23.10;37.80;;;;;;5056476;28;20424;-43
2021/12/14 09:16:26;;;;;;;1.20;1.00;;;23.10;37.70;;;;;;5039868;28;20021;-42
2021/12/14 09:19:02;;;;;;;1.30;1.10;;;23.10;37.70;;;;;;5036065;28;20040;-45
2021/12/14 09:21:36;;;;;;;1.85;0.98;;;23.10;37.60;;;;;;5044306;28;20432;-43
2021/12/14 09:24:07;;;;;;;1.95;1.13;;;23.10;37.60;;;;;;5036167;28;20029;-42
2021/12/14 09:26:36;;;;;;;2.05;1.40;;;23.10;37.60;;;;;;5036410;28;20352;-44
2021/12/14 09:29:11;;;;;;;1.23;1.10;;;23.10;37.60;;;;;;5036144;28;20095;-46
2021/12/14 09:31:38;;;;;;;;;;;23.10;37.60;;;;;;5047798;28;20025;-42
2021/12/14 09:34:07;;;;;;;1.23;1.10;;;23.00;37.60;;;;;;5037641;28;19975;-44
2021/12/14 09:36:33;;;;;;;1.10;1.00;;;23.00;37.60;;;;;;5044057;28;20022;-44
2021/12/14 09:39:10;;;;;;;1.70;1.33;;;23.00;37.60;;;;;;5035645;28;20025;-43
2021/12/14 09:41:37;;;;;;;1.90;1.38;;;23.00;37.50;;;;;;5036442;28;20033;-43
2021/12/14 09:44:08;;;;;;;1.73;1.40;;;23.00;37.60;;;;;;5037091;28;20417;-41
2021/12/14 09:46:35;;;;;;;1.42;1.33;;;22.90;37.60;;;;;;5054351;28;20032;-44
2021/12/14 09:49:04;;;;;;;1.63;1.40;;;22.90;37.60;;;;;;5050510;28;20040;-43
2021/12/14 09:51:36;;;;;;;1.80;1.50;;;22.90;37.70;;;;;;5054942;28;20032;-44
2021/12/14 09:54:06;;;;;;;1.83;1.50;;;22.80;37.60;;;;;;5035482;28;20321;-42
2021/12/14 09:56:39;;;;;;;1.95;1.75;;;22.70;37.70;;;;;;5035345;28;20038;-42
2021/12/14 09:59:08;;;;;;;2.92;2.00;;;22.70;37.70;;;;;;5034844;28;20041;-44
2021/12/14 10:01:41;;;;;;;2.85;1.90;;;22.70;37.70;;;;;;5046770;28;20098;-42
2021/12/14 10:04:15;;;;;;;1.80;1.67;;;22.60;37.70;;;;;;5035561;28;20357;-43
2021/12/14 10:06:41;;;;;;;2.97;2.17;;;22.60;37.80;;;;;;5034675;28;20413;-43
2021/12/14 10:09:13;;;;;;;2.55;2.33;;;22.60;37.90;;;;;;5035948;28;20476;-43
2021/12/14 10:14:25;;;;;;;2.30;2.10;;;22.50;37.90;;;;;;5035008;28;20053;-45
2021/12/14 10:16:51;;;;;;;2.75;2.50;;;22.40;37.90;;;;;;5035582;28;20028;-44
2021/12/14 10:19:22;;;;;;;2.53;2.30;;;22.40;38.00;;;;;;5047745;28;20439;-44
2021/12/14 10:22:02;;;;;;;3.08;2.40;;;22.40;38.10;;;;;;5035139;28;20029;-44
2021/12/14 10:24:29;;;;;;;2.38;1.95;;;22.40;38.20;;;;;;5042294;28;20036;-46
2021/12/14 10:27:00;;;;;;;2.80;2.50;;;22.30;38.20;;;;;;5020470;28;20325;-44
2021/12/14 10:29:29;;;;;;;3.75;2.35;;;22.30;38.30;;;;;;5040266;28;20032;-42
2021/12/14 10:32:00;;;;;;;2.50;2.30;;;22.30;38.30;;;;;;5041775;28;20021;-43
2021/12/14 10:34:29;;;;;;;2.72;2.47;;;22.30;38.40;;;;;;5039163;28;20020;-44
2021/12/14 10:37:15;;;;;;;2.20;2.00;;;22.30;38.40;;;;;;5053021;28;20021;-48
2021/12/14 10:45:08;;;;;;;2.58;2.28;;;22.30;38.60;;;;;;5049015;28;20040;-49
2021/12/14 10:47:34;;;;;;;4.07;2.58;;;22.30;38.70;;;;;;5053600;28;20036;-44
2021/12/14 10:50:06;;;;;;;2.65;2.40;;;22.20;38.70;;;;;;5058437;28;20459;-44
2021/12/14 10:52:32;;;;;;;3.10;2.80;;;22.20;38.80;;;;;;5044960;28;20376;-43
2021/12/14 10:55:09;;;;;;;3.22;2.75;;;22.20;38.80;;;;;;5034277;28;20329;-46
2021/12/14 10:57:35;;;;;;;3.72;2.88;;;22.20;38.80;;;;;;5035236;28;20097;-46
2021/12/14 11:00:08;;;;;;;3.22;2.83;;;22.20;38.90;;;;;;5047233;28;20041;-46
2021/12/14 11:02:40;;;;;;;4.15;2.60;;;22.10;38.90;;;;;;5046489;28;20399;-46
2021/12/14 11:05:14;;;;;;;3.67;2.90;;;22.20;39.00;;;;;;5047543;28;20064;-47
2021/12/14 11:07:43;;;;;;;2.90;2.60;;;22.20;39.00;;;;;;5035079;28;20026;-45
2021/12/14 11:10:23;;;;;;;3.33;3.03;;;22.10;39.00;;;;;;5036745;28;20049;-43
2021/12/14 11:12:56;;;;;;;2.95;2.55;;;22.10;39.10;;;;;;5048804;28;20474;-47
2021/12/14 11:15:30;;;;;;;6.20;2.90;;;22.10;39.10;;;;;;5048400;28;20025;-52
2021/12/14 11:18:14;;;;;;;3.10;2.83;;;22.10;39.20;;;;;;5036001;28;20028;-48
2021/12/14 11:21:14;;;;;;;3.97;3.40;;;22.10;39.20;;;;;;5053466;28;20404;-46
2021/12/14 11:23:46;;;;;;;3.03;2.72;;;22.20;39.40;;;;;;5047124;28;20026;-54
2021/12/14 11:26:15;;;;;;;3.78;2.72;;;22.20;39.40;;;;;;5052452;28;20351;-44
2021/12/14 11:28:57;;;;;;;4.28;3.20;;;22.20;39.50;;;;;;5043844;28;20030;-48
2021/12/14 11:31:36;;;;;;;4.88;3.22;;;22.20;39.60;;;;;;5044214;28;20104;-51
2021/12/14 11:34:09;;;;;;;7.40;3.17;;;22.20;39.80;;;;;;5051948;28;20092;-48
2021/12/14 11:36:37;;;;;;;4.10;3.67;;;22.30;40.00;;;;;;5056840;28;20021;-45
2021/12/14 11:39:34;;;;;;;4.22;3.42;;;22.30;39.90;;;;;;5049273;28;20090;-46
2021/12/14 11:42:04;;;;;;;4.35;3.50;;;22.30;39.80;;;;;;5037128;28;20049;-45
2021/12/14 11:44:47;;;;;;;5.15;4.25;;;22.30;39.90;;;;;;5052886;28;20094;-46
2021/12/14 11:50:00;;;;;;;4.57;3.88;;;22.40;39.90;;;;;;5048926;28;20166;-43
2021/12/14 11:52:32;;;;;;;5.85;3.65;;;22.40;39.90;;;;;;5052619;28;20028;-42
2021/12/14 11:54:58;;;;;;;4.47;4.07;;;22.40;39.90;;;;;;5052936;28;20036;-44
2021/12/14 11:57:31;;;;;;;6.05;3.75;;;22.40;39.90;;;;;;5052388;28;20482;-44
2021/12/14 12:00:10;;;;;;;6.60;3.72;;;22.40;39.80;;;;;;5038786;28;20045;-44
2021/12/14 12:02:36;;;;;;;4.28;3.88;;;22.50;39.80;;;;;;5055766;28;20021;-46
2021/12/14 12:05:22;;;;;;;7.07;4.30;;;22.50;39.80;;;;;;5028684;28;20673;-45
2021/12/14 12:10:37;;;;;;;;;;;22.60;39.70;;;;;;5056893;28;20043;-46
2021/12/14 12:13:02;;;;;;;6.18;4.13;;;22.60;39.70;;;;;;5055573;28;19908;-44
2021/12/14 12:15:28;;;;;;;5.30;4.25;;;22.60;39.70;;;;;;5038980;28;20028;-45
2021/12/14 12:18:00;;;;;;;5.55;4.80;;;22.70;39.70;;;;;;5056129;28;20032;-46
2021/12/14 12:20:45;;;;;;;4.10;3.65;;;22.70;39.60;;;;;;5041845;28;20064;-46
2021/12/14 12:23:21;;;;;;;4.68;3.85;;;22.80;39.60;;;;;;5055333;28;20123;-45
2021/12/14 12:26:09;;;;;;;5.18;4.28;;;22.80;39.50;;;;;;5037354;28;20041;-46
2021/12/14 12:28:46;;;;;;;5.43;4.70;;;22.80;39.40;;;;;;5040277;28;20124;-46
2021/12/14 12:31:19;;;;;;;8.07;4.50;;;22.90;39.50;;;;;;5055739;28;20032;-49
2021/12/14 12:33:53;;;;;;;4.82;4.22;;;22.90;39.50;;;;;;5049356;28;20331;-49
2021/12/14 12:36:22;;;;;;;5.03;4.53;;;22.90;39.50;;;;;;5046920;28;20117;-47
2021/12/14 12:38:50;;;;;;;5.35;4.85;;;22.90;39.60;;;;;;5047723;28;20068;-48
2021/12/14 12:41:26;;;;;;;5.25;4.43;;;22.90;39.60;;;;;;5052114;28;20400;-56
2021/12/14 12:43:58;;;;;;;5.22;4.53;;;22.90;39.60;;;;;;5045897;28;20106;-49
2021/12/14 12:46:48;;;;;;;5.40;4.05;;;22.90;39.70;;;;;;5053723;28;20035;-52
2021/12/14 12:49:22;;;;;;;5.88;4.85;;;22.90;39.60;;;;;;5053091;28;20366;-51
2021/12/14 12:51:56;;;;;;;5.43;4.55;;;23.00;39.70;;;;;;5038305;28;20040;-51
2021/12/14 12:54:42;;;;;;;;;;;23.00;39.80;;;;;;5048627;28;20021;-50
2021/12/14 12:57:08;;;;;;;4.03;3.63;;;22.90;39.70;;;;;;5046429;28;19909;-48
2021/12/14 12:59:49;;;;;;;4.57;3.95;;;23.00;39.80;;;;;;5023973;28;20049;-49
2021/12/14 13:02:30;;;;;;;5.97;4.25;;;23.10;39.70;;;;;;5051706;28;20041;-52
2021/12/14 13:05:08;;;;;;;5.05;3.90;;;23.10;39.60;;;;;;5052612;28;20107;-45
2021/12/14 13:07:47;;;;;;;4.38;3.92;;;23.20;39.50;;;;;;5051079;28;20406;-48
2021/12/14 13:10:27;;;;;;;4.43;4.03;;;23.20;39.50;;;;;;5032690;28;20056;-45
2021/12/14 13:13:21;;;;;;;4.43;3.85;;;23.30;39.50;;;;;;5055408;28;20320;-48
2021/12/14 13:15:59;;;;;;;4.25;3.80;;;23.30;39.40;;;;;;5050834;28;20025;-47
2021/12/14 13:18:27;;;;;;;3.90;3.50;;;23.40;39.40;;;;;;5053227;28;20067;-49
2021/12/14 13:21:08;;;;;;;4.28;3.80;;;23.40;39.40;;;;;;5054224;28;20087;-49
2021/12/14 13:23:45;;;;;;;4.90;3.90;;;23.40;39.30;;;;;;5041829;28;20039;-46
2021/12/14 13:26:37;;;;;;;5.50;4.30;;;23.50;39.30;;;;;;5028299;28;20348;-47
2021/12/14 13:29:12;;;;;;;4.38;3.88;;;23.50;39.30;;;;;;5016065;28;20451;-49
2021/12/14 13:31:46;;;;;;;5.07;4.25;;;23.50;39.40;;;;;;5054041;28;20033;-44
2021/12/14 13:34:24;;;;;;;4.60;4.15;;;23.60;39.50;;;;;;5046693;28;20166;-47
2021/12/14 13:36:52;;;;;;;4.60;4.15;;;23.60;39.40;;;;;;5046942;28;20021;-48
2021/12/14 13:39:19;;;;;;;5.45;4.10;;;23.60;39.40;;;;;;5055986;28;20028;-47
2021/12/14 13:42:28;;;;;;;4.10;3.55;;;23.70;39.40;;;;;;5052214;28;20021;-46
2021/12/14 13:44:55;;;;;;;6.13;4.47;;;23.70;39.30;;;;;;5053789;28;20037;-50
2021/12/14 13:47:25;;;;;;;3.95;3.55;;;23.70;39.40;;;;;;5034507;28;20017;-49
2021/12/14 13:49:52;;;;;;;4.30;3.83;;;23.60;39.20;;;;;;5053726;28;20020;-47
2021/12/14 13:52:19;;;;;;;3.55;3.15;;;23.60;39.10;;;;;;5035887;28;20033;-45
2021/12/14 13:55:10;;;;;;;3.70;3.22;;;23.60;39.20;;;;;;5051141;28;20064;-51
2021/12/14 13:57:40;;;;;;;4.55;3.58;;;23.60;39.10;;;;;;5041930;28;20388;-46
2021/12/14 14:00:11;;;;;;;3.58;3.15;;;23.60;39.20;;;;;;5047330;28;20047;-47